createdAt,value
2022-11-06T00:02:20.941Z,10.85
2022-11-06T00:04:48.360Z,10.76
2022-11-06T00:07:14.979Z,10.75
2022-11-06T00:09:41.623Z,10.73
2022-11-06T00:12:08.387Z,10.65
2022-11-06T00:14:35.422Z,10.73
2022-11-06T00:17:02.168Z,10.82
2022-11-06T00:19:28.793Z,10.82
2022-11-06T00:21:55.405Z,10.84
2022-11-06T00:24:22.082Z,10.87
2022-11-06T00:26:54.234Z,10.67
2022-11-06T00:29:21.284Z,10.56
2022-11-06T00:31:50.083Z,10.68
2022-11-06T00:34:16.866Z,10.72
2022-11-06T00:36:43.929Z,10.71
2022-11-06T00:39:11.813Z,10.80
2022-11-06T00:41:38.792Z,10.74
2022-11-06T00:44:05.621Z,10.75
2022-11-06T00:46:32.880Z,10.80
2022-11-06T00:48:59.497Z,10.70
2022-11-06T00:51:32.345Z,10.54
2022-11-06T00:54:00.796Z,10.42
2022-11-06T00:56:28.121Z,10.44
2022-11-06T00:58:59.109Z,10.30
2022-11-06T01:01:30.836Z,10.30
2022-11-06T01:04:10.987Z,10.22
2022-11-06T01:06:40.642Z,10.13
2022-11-06T01:09:08.632Z,10.11
2022-11-06T01:12:06.685Z,10.15
2022-11-06T01:14:26.447Z,9.96
2022-11-06T01:16:53.080Z,9.98
2022-11-06T01:19:21.454Z,9.95
2022-11-06T01:21:50.550Z,9.97
2022-11-06T01:24:21.520Z,9.83
2022-11-06T01:27:05.267Z,9.82
2022-11-06T01:29:36.169Z,9.79
2022-11-06T01:32:02.831Z,9.89
2022-11-06T01:34:29.803Z,9.96
2022-11-06T01:36:56.459Z,9.88
2022-11-06T01:39:23.128Z,9.86
2022-11-06T01:41:52.561Z,9.79
2022-11-06T01:44:40.894Z,9.69
2022-11-06T01:47:24.613Z,9.47
2022-11-06T01:49:55.454Z,9.47
2022-11-06T01:52:23.836Z,9.42
2022-11-06T01:54:59.673Z,9.37
2022-11-06T01:57:26.403Z,9.36
2022-11-06T01:59:55.025Z,9.50
2022-11-06T02:02:22.482Z,9.53
2022-11-06T02:04:50.145Z,9.48
2022-11-06T02:07:19.038Z,9.57
2022-11-06T02:09:46.260Z,9.55
2022-11-06T02:12:36.943Z,9.57
2022-11-06T02:15:25.599Z,9.63
2022-11-06T02:18:07.158Z,9.58
2022-11-06T02:20:41.871Z,9.48
2022-11-06T02:23:57.832Z,9.49
2022-11-06T02:26:35.713Z,9.26
2022-11-06T02:29:15.408Z,9.12
2022-11-06T02:31:45.402Z,9.31
2022-11-06T02:34:15.723Z,9.43
2022-11-06T02:37:00.358Z,9.55
2022-11-06T02:39:29.356Z,9.73
2022-11-06T02:41:58.687Z,9.56
2022-11-06T02:44:28.047Z,10.04
2022-11-06T02:47:00.026Z,10.27
2022-11-06T02:49:33.125Z,10.36
2022-11-06T02:52:06.843Z,10.70
2022-11-06T02:54:39.049Z,10.88
2022-11-06T02:57:08.189Z,11.07
2022-11-06T02:59:47.742Z,11.04
2022-11-06T03:02:25.476Z,11.18
2022-11-06T03:04:59.517Z,11.29
2022-11-06T03:07:38.059Z,11.31
2022-11-06T03:10:06.929Z,11.34
2022-11-06T03:13:08.016Z,11.40
2022-11-06T03:16:04.887Z,11.36
2022-11-06T03:18:43.531Z,11.30
2022-11-06T03:21:24.404Z,11.37
2022-11-06T03:23:57.233Z,11.37
2022-11-06T03:26:33.516Z,11.36
2022-11-06T03:29:23.680Z,11.40
2022-11-06T03:32:01.935Z,11.39
2022-11-06T03:34:59.638Z,11.35
2022-11-06T03:37:35.980Z,11.23
2022-11-06T03:40:06.304Z,11.24
2022-11-06T03:42:33.247Z,11.12
2022-11-06T03:45:06.579Z,11.01
2022-11-06T03:47:49.090Z,11.05
2022-11-06T03:50:24.097Z,10.88
2022-11-06T03:53:00.863Z,10.86
2022-11-06T03:55:36.446Z,10.83
2022-11-06T03:58:11.414Z,10.88
2022-11-06T04:00:41.940Z,10.88
2022-11-06T04:03:21.175Z,10.86
2022-11-06T04:05:56.725Z,10.92
2022-11-06T04:08:45.363Z,10.93
2022-11-06T04:11:36.664Z,10.82
2022-11-06T04:14:07.251Z,10.86
2022-11-06T04:16:41.245Z,10.78
2022-11-06T04:19:25.920Z,10.80
2022-11-06T04:22:10.643Z,10.83
2022-11-06T04:25:05.357Z,10.81
2022-11-06T04:27:34.996Z,10.85
2022-11-06T04:30:14.657Z,10.86
2022-11-06T04:33:00.044Z,10.90
2022-11-06T04:35:42.546Z,10.95
2022-11-06T04:38:27.537Z,11.01
2022-11-06T04:41:35.162Z,11.00
2022-11-06T04:44:07.853Z,11.09
2022-11-06T04:46:40.897Z,11.14
2022-11-06T04:49:09.043Z,11.18
2022-11-06T04:51:39.377Z,11.22
2022-11-06T04:54:09.207Z,11.22
2022-11-06T04:56:40.142Z,11.33
2022-11-06T04:59:15.717Z,11.30
2022-11-06T05:01:42.462Z,11.33
2022-11-06T05:04:10.821Z,11.29
2022-11-06T05:06:37.643Z,11.28
2022-11-06T05:09:04.462Z,11.33
2022-11-06T05:11:31.271Z,11.35
2022-11-06T05:13:57.985Z,11.32
2022-11-06T05:16:24.699Z,11.38
2022-11-06T05:18:51.487Z,11.36
2022-11-06T05:21:36.652Z,11.30
2022-11-06T05:24:03.769Z,11.35
2022-11-06T05:26:30.739Z,11.40
2022-11-06T05:28:57.758Z,11.33
2022-11-06T05:31:25.279Z,11.45
2022-11-06T05:33:51.858Z,11.40
2022-11-06T05:36:18.602Z,11.43
2022-11-06T05:38:45.213Z,11.50
2022-11-06T05:41:12.392Z,11.45
2022-11-06T05:43:39.473Z,11.40
2022-11-06T05:46:14.959Z,11.39
2022-11-06T05:48:50.909Z,11.39
2022-11-06T05:51:17.966Z,11.41
2022-11-06T05:53:44.661Z,11.45
2022-11-06T05:56:11.580Z,11.41
2022-11-06T05:58:38.163Z,11.47
2022-11-06T06:01:05.298Z,11.58
2022-11-06T06:03:32.139Z,11.63
2022-11-06T06:05:58.894Z,11.76
2022-11-06T06:08:25.693Z,11.79
2022-11-06T06:10:52.314Z,11.81
2022-11-06T06:13:19.122Z,11.82
2022-11-06T06:15:46.348Z,11.96
2022-11-06T06:18:13.568Z,12.05
2022-11-06T06:20:40.582Z,11.96
2022-11-06T06:23:09.562Z,12.13
2022-11-06T06:25:36.593Z,12.15
2022-11-06T06:28:03.532Z,12.12
2022-11-06T06:30:30.782Z,12.13
2022-11-06T06:32:57.381Z,12.21
2022-11-06T06:35:23.989Z,12.18
2022-11-06T06:37:52.791Z,12.15
2022-11-06T06:40:20.080Z,12.20
2022-11-06T06:42:46.723Z,12.23
2022-11-06T06:45:13.601Z,12.22
2022-11-06T06:47:40.336Z,12.33
2022-11-06T06:55:59.489Z,12.43
2022-11-06T06:58:27.257Z,12.42
2022-11-06T07:00:54.088Z,12.49
2022-11-06T07:03:21.040Z,12.55
2022-11-06T07:05:47.704Z,12.51
2022-11-06T07:08:14.628Z,12.64
2022-11-06T07:10:41.798Z,12.71
2022-11-06T07:13:08.428Z,12.77
2022-11-06T07:15:35.436Z,12.79
2022-11-06T07:18:03.583Z,12.81
2022-11-06T07:20:30.724Z,12.78
2022-11-06T07:22:58.328Z,12.83
2022-11-06T07:25:26.011Z,12.84
2022-11-06T07:27:53.017Z,12.88
2022-11-06T07:30:19.839Z,12.98
2022-11-06T07:32:46.554Z,13.01
2022-11-06T07:35:13.259Z,13.01
2022-11-06T07:37:39.879Z,12.99
2022-11-06T07:40:07.625Z,13.08
2022-11-06T07:42:38.257Z,13.05
2022-11-06T07:45:08.420Z,13.12
2022-11-06T07:47:35.572Z,13.10
2022-11-06T07:50:02.465Z,13.19
2022-11-06T07:52:29.063Z,13.13
2022-11-06T07:54:56.186Z,13.27
2022-11-06T07:57:22.997Z,13.27
2022-11-06T07:59:49.818Z,13.26
2022-11-06T08:02:17.704Z,13.29
2022-11-06T08:04:44.654Z,13.36
2022-11-06T08:07:11.226Z,13.51
2022-11-06T08:09:37.864Z,13.46
2022-11-06T08:12:04.930Z,13.49
2022-11-06T08:14:31.645Z,13.68
2022-11-06T08:16:58.657Z,13.64
2022-11-06T08:19:26.110Z,13.71
2022-11-06T08:21:53.174Z,13.72
2022-11-06T08:24:22.052Z,13.81
2022-11-06T08:26:49.168Z,13.84
2022-11-06T08:29:16.263Z,13.73
2022-11-06T08:31:43.279Z,13.88
2022-11-06T08:34:10.589Z,13.74
2022-11-06T08:37:27.116Z,13.83
2022-11-06T08:39:53.941Z,13.79
2022-11-06T08:42:21.001Z,13.59
2022-11-06T08:44:48.184Z,13.63
2022-11-06T08:47:15.108Z,13.49
2022-11-06T08:49:41.969Z,13.48
2022-11-06T08:52:08.862Z,13.37
2022-11-06T08:54:38.528Z,13.39
2022-11-06T08:57:05.416Z,13.31
2022-11-06T08:59:33.281Z,13.08
2022-11-06T09:02:01.173Z,12.95
2022-11-06T09:04:28.088Z,12.99
2022-11-06T09:06:56.946Z,12.84
2022-11-06T09:09:24.266Z,12.99
2022-11-06T09:11:51.095Z,12.87
2022-11-06T09:14:18.339Z,13.00
2022-11-06T09:16:45.105Z,13.03
2022-11-06T09:19:12.022Z,13.22
2022-11-06T09:21:40.902Z,13.27
2022-11-06T09:24:07.729Z,13.38
2022-11-06T09:26:35.421Z,13.38
2022-11-06T09:29:02.265Z,13.28
2022-11-06T09:31:29.103Z,13.43
2022-11-06T09:33:56.211Z,13.46
2022-11-06T09:36:23.445Z,13.37
2022-11-06T09:38:50.311Z,13.42
2022-11-06T09:41:37.935Z,13.49
2022-11-06T09:44:41.175Z,13.38
2022-11-06T09:47:19.360Z,13.24
2022-11-06T09:49:52.030Z,13.05
2022-11-06T09:52:44.870Z,13.11
2022-11-06T09:55:25.453Z,13.01
2022-11-06T09:58:00.090Z,13.10
2022-11-06T10:00:29.791Z,13.14
2022-11-06T10:03:08.752Z,13.07
2022-11-06T10:05:38.412Z,12.75
2022-11-06T10:08:20.290Z,13.00
2022-11-06T10:11:24.434Z,13.15
2022-11-06T10:14:20.810Z,13.11
2022-11-06T10:17:01.638Z,12.92
2022-11-06T10:19:45.712Z,13.04
2022-11-06T10:22:17.979Z,13.05
2022-11-06T10:24:46.557Z,13.10
2022-11-06T10:27:20.025Z,12.94
2022-11-06T10:30:04.714Z,13.06
2022-11-06T10:32:57.918Z,13.09
2022-11-06T10:35:47.058Z,13.09
2022-11-06T10:38:15.553Z,13.12
2022-11-06T10:40:46.478Z,13.25
2022-11-06T10:43:19.018Z,13.38
2022-11-06T10:45:50.677Z,13.47
2022-11-06T10:48:27.387Z,13.48
2022-11-06T10:51:21.033Z,13.59
2022-11-06T10:54:00.877Z,13.52
2022-11-06T10:56:59.615Z,13.35
2022-11-06T10:59:26.217Z,13.32
2022-11-06T11:01:54.006Z,13.32
2022-11-06T11:04:20.901Z,13.41
2022-11-06T11:06:47.655Z,13.35
2022-11-06T11:09:34.459Z,13.32
2022-11-06T11:12:01.347Z,13.17
2022-11-06T11:14:30.530Z,13.04
2022-11-06T11:17:01.976Z,13.03
2022-11-06T11:19:41.601Z,13.04
2022-11-06T11:22:21.626Z,12.94
2022-11-06T11:25:06.076Z,12.77
2022-11-06T11:27:38.329Z,12.84
2022-11-06T11:30:06.333Z,12.79
2022-11-06T11:32:33.640Z,12.70
2022-11-06T11:35:01.301Z,12.73
2022-11-06T11:37:31.065Z,12.79
2022-11-06T11:40:23.566Z,12.88
2022-11-06T11:42:50.163Z,13.00
2022-11-06T11:45:19.498Z,13.07
2022-11-06T11:47:48.658Z,12.87
2022-11-06T11:50:20.292Z,12.91
2022-11-06T11:52:49.417Z,12.73
2022-11-06T11:55:18.587Z,12.72
2022-11-06T11:57:48.967Z,12.78
2022-11-06T12:00:20.913Z,12.59
2022-11-06T12:02:52.087Z,12.82
2022-11-06T12:05:24.198Z,12.94
2022-11-06T12:07:56.366Z,12.85
2022-11-06T12:10:34.999Z,12.85
2022-11-06T12:13:05.271Z,12.77
2022-11-06T12:15:41.027Z,12.86
2022-11-06T12:18:15.796Z,12.90
2022-11-06T12:21:04.297Z,12.82
2022-11-06T12:23:53.809Z,12.98
2022-11-06T12:26:25.393Z,13.05
2022-11-06T12:29:02.010Z,13.01
2022-11-06T12:31:41.559Z,13.02
2022-11-06T12:34:17.851Z,13.07
2022-11-06T12:36:59.095Z,13.19
2022-11-06T12:39:33.554Z,13.13
2022-11-06T12:42:04.465Z,12.89
2022-11-06T12:44:31.179Z,13.02
2022-11-06T12:47:05.408Z,13.13
2022-11-06T12:49:44.574Z,13.03
2022-11-06T12:52:39.394Z,13.07
2022-11-06T12:55:32.041Z,13.07
2022-11-06T12:58:20.265Z,13.07
2022-11-06T13:01:08.302Z,13.15
2022-11-06T13:03:44.013Z,13.24
2022-11-06T13:06:24.518Z,13.14
2022-11-06T13:09:06.097Z,13.21
2022-11-06T13:12:17.602Z,13.41
2022-11-06T13:14:47.589Z,13.43
2022-11-06T13:17:26.731Z,13.39
2022-11-06T13:20:03.758Z,13.27
2022-11-06T13:22:42.561Z,13.32
2022-11-06T13:25:45.811Z,13.36
2022-11-06T13:28:26.805Z,13.24
2022-11-06T13:30:54.241Z,13.21
2022-11-06T13:33:28.656Z,13.18
2022-11-06T13:35:55.949Z,13.18
2022-11-06T13:38:28.637Z,13.13
2022-11-06T13:41:11.700Z,13.05
2022-11-06T13:43:54.990Z,13.05
2022-11-06T13:46:52.865Z,13.05
2022-11-06T13:49:43.491Z,13.05
2022-11-06T13:52:09.969Z,13.00
2022-11-06T13:55:03.359Z,12.97
2022-11-06T13:58:01.031Z,13.00
2022-11-06T14:00:45.818Z,13.00
2022-11-06T14:03:37.525Z,13.07
2022-11-06T14:06:25.130Z,13.05
2022-11-06T14:08:56.730Z,13.08
2022-11-06T14:11:33.106Z,13.12
2022-11-06T14:14:06.211Z,13.08
2022-11-06T14:16:41.120Z,13.13
2022-11-06T14:19:23.376Z,13.07
2022-11-06T14:21:56.605Z,13.14
2022-11-06T14:24:32.422Z,13.06
2022-11-06T14:27:06.611Z,13.05
2022-11-06T14:29:33.152Z,13.03
2022-11-06T14:32:06.512Z,13.01
2022-11-06T14:34:34.467Z,13.01
2022-11-06T14:37:19.741Z,13.05
2022-11-06T14:39:55.518Z,13.05
2022-11-06T14:42:33.820Z,13.03
2022-11-06T14:45:10.080Z,12.91
2022-11-06T14:47:51.372Z,13.00
2022-11-06T14:50:38.198Z,12.98
2022-11-06T14:53:24.341Z,12.85
2022-11-06T14:55:59.168Z,13.07
2022-11-06T14:58:31.307Z,13.12
2022-11-06T15:01:00.899Z,13.14
2022-11-06T15:03:37.570Z,13.07
2022-11-06T15:06:34.685Z,13.21
2022-11-06T15:09:16.095Z,13.25
2022-11-06T15:11:47.646Z,13.27
2022-11-06T15:14:17.538Z,13.31
2022-11-06T15:16:55.896Z,13.31
2022-11-06T15:19:28.287Z,13.34
2022-11-06T15:22:04.481Z,13.37
2022-11-06T15:24:56.913Z,13.39
2022-11-06T15:27:42.968Z,13.36
2022-11-06T15:30:16.693Z,13.36
2022-11-06T15:32:46.020Z,13.35
2022-11-06T15:35:27.711Z,13.36
2022-11-06T15:38:17.073Z,13.23
2022-11-06T15:40:44.586Z,13.25
2022-11-06T15:43:24.256Z,13.28
2022-11-06T15:46:12.709Z,13.30
2022-11-06T15:48:39.376Z,13.30
2022-11-06T15:51:28.676Z,13.33
2022-11-06T15:53:55.753Z,13.36
2022-11-06T15:56:31.639Z,13.36
2022-11-06T15:59:24.378Z,13.34
2022-11-06T16:01:51.167Z,13.42
2022-11-06T16:04:25.732Z,13.25
2022-11-06T16:06:55.120Z,13.29
2022-11-06T16:09:25.281Z,13.29
2022-11-06T16:11:53.090Z,13.33
2022-11-06T16:14:20.702Z,13.33
2022-11-06T16:16:51.348Z,13.38
2022-11-06T16:19:20.508Z,13.37
2022-11-06T16:22:04.313Z,13.32
2022-11-06T16:24:40.136Z,13.15
2022-11-06T16:27:07.324Z,13.04
2022-11-06T16:29:34.809Z,12.92
2022-11-06T16:32:18.243Z,12.73
2022-11-06T16:34:47.025Z,12.57
2022-11-06T16:37:16.377Z,12.70
2022-11-06T16:39:52.844Z,12.69
2022-11-06T16:42:22.637Z,12.75
2022-11-06T16:45:00.337Z,12.79
2022-11-06T16:47:27.504Z,12.77
2022-11-06T16:49:59.752Z,12.75
2022-11-06T16:52:39.426Z,12.77
2022-11-06T16:55:34.410Z,12.74
2022-11-06T16:58:03.289Z,12.62
2022-11-06T17:00:31.875Z,12.56
2022-11-06T17:03:04.610Z,12.63
2022-11-06T17:05:50.257Z,12.51
2022-11-06T17:08:40.259Z,12.52
2022-11-06T17:11:12.799Z,12.46
2022-11-06T17:13:45.347Z,12.39
2022-11-06T17:16:15.654Z,12.33
2022-11-06T17:18:43.053Z,12.30
2022-11-06T17:21:14.220Z,12.23
2022-11-06T17:23:41.588Z,12.18
2022-11-06T17:26:13.304Z,12.06
2022-11-06T17:28:40.269Z,12.10
2022-11-06T17:31:11.116Z,11.95
2022-11-06T17:33:37.978Z,12.04
2022-11-06T17:36:05.512Z,11.85
2022-11-06T17:38:32.167Z,11.86
2022-11-06T17:40:58.777Z,11.87
2022-11-06T17:43:25.641Z,11.81
2022-11-06T17:45:52.491Z,11.92
2022-11-06T17:48:19.187Z,11.99
2022-11-06T17:51:04.600Z,11.87
2022-11-06T17:53:31.339Z,11.86
2022-11-06T17:55:58.138Z,11.87
2022-11-06T17:58:25.069Z,11.96
2022-11-06T18:00:51.852Z,12.04
2022-11-06T18:03:20.611Z,12.13
2022-11-06T18:05:47.518Z,12.19
2022-11-06T18:08:15.156Z,12.16
2022-11-06T18:10:42.477Z,12.12
2022-11-06T18:13:09.391Z,12.13
2022-11-06T18:15:37.506Z,12.13
2022-11-06T18:18:04.504Z,12.11
2022-11-06T18:20:31.198Z,12.19
2022-11-06T18:22:57.861Z,12.20
2022-11-06T18:25:24.613Z,12.12
2022-11-06T18:27:51.146Z,12.22
2022-11-06T18:30:17.867Z,12.21
2022-11-06T18:32:44.725Z,12.19
2022-11-06T18:35:11.742Z,12.15
2022-11-06T18:37:38.813Z,12.07
2022-11-06T18:40:05.812Z,12.19
2022-11-06T18:42:32.605Z,12.11
2022-11-06T18:44:59.212Z,11.97
2022-11-06T18:47:25.897Z,11.97
2022-11-06T18:49:52.557Z,11.94
2022-11-06T18:52:38.084Z,12.03
2022-11-06T18:55:06.333Z,12.07
2022-11-06T18:57:33.060Z,11.94
2022-11-06T18:59:59.867Z,11.98
2022-11-06T19:02:26.650Z,11.87
2022-11-06T19:04:53.923Z,11.96
2022-11-06T19:07:20.596Z,11.91
2022-11-06T19:09:47.470Z,11.86
2022-11-06T19:12:14.055Z,12.04
2022-11-06T19:14:40.623Z,12.03
2022-11-06T19:17:07.455Z,11.93
2022-11-06T19:19:34.167Z,11.76
2022-11-06T19:22:00.991Z,11.89
2022-11-06T19:24:27.576Z,11.89
2022-11-06T19:26:54.577Z,11.84
2022-11-06T19:29:21.369Z,11.65
2022-11-06T19:31:48.064Z,11.42
2022-11-06T19:34:15.202Z,11.35
2022-11-06T19:36:41.779Z,11.22
2022-11-06T19:39:08.562Z,11.39
2022-11-06T19:41:35.265Z,11.45
2022-11-06T19:44:01.839Z,11.41
2022-11-06T19:46:33.863Z,11.45
2022-11-06T19:49:06.527Z,11.41
2022-11-06T19:51:34.089Z,11.49
2022-11-06T19:54:01.599Z,11.53
2022-11-06T19:56:28.339Z,11.45
2022-11-06T19:58:54.881Z,11.44
2022-11-06T20:01:22.015Z,11.49
2022-11-06T20:03:48.759Z,11.42
2022-11-06T20:06:16.974Z,11.41
2022-11-06T20:08:47.447Z,11.28
2022-11-06T20:11:15.377Z,11.38
2022-11-06T20:13:43.479Z,11.39
2022-11-06T20:16:13.065Z,11.34
2022-11-06T20:18:39.889Z,11.29
2022-11-06T20:21:09.084Z,11.10
2022-11-06T20:23:36.512Z,11.14
2022-11-06T20:26:04.837Z,11.18
2022-11-06T20:28:32.290Z,11.26
2022-11-06T20:30:59.757Z,11.34
2022-11-06T20:33:26.619Z,11.35
2022-11-06T20:35:53.360Z,11.31
2022-11-06T20:38:20.112Z,11.42
2022-11-06T20:40:46.655Z,11.47
2022-11-06T20:43:14.045Z,11.44
2022-11-06T20:45:41.051Z,11.54
2022-11-06T20:48:09.352Z,11.42
2022-11-06T20:50:36.032Z,11.47
2022-11-06T20:53:02.829Z,11.63
2022-11-06T20:55:29.515Z,11.62
2022-11-06T20:57:56.589Z,11.69
2022-11-06T21:00:23.310Z,11.76
2022-11-06T21:02:50.130Z,11.66
2022-11-06T21:05:17.523Z,11.81
2022-11-06T21:07:44.198Z,11.76
2022-11-06T21:10:12.335Z,11.77
2022-11-06T21:12:39.414Z,11.84
2022-11-06T21:15:06.904Z,11.88
2022-11-06T21:17:34.806Z,11.95
2022-11-06T21:20:01.814Z,12.05
2022-11-06T21:22:28.513Z,12.01
2022-11-06T21:24:55.753Z,12.05
2022-11-06T21:27:22.519Z,12.04
2022-11-06T21:29:49.078Z,11.98
2022-11-06T21:32:15.746Z,11.88
2022-11-06T21:34:42.628Z,11.88
2022-11-06T21:37:09.535Z,11.67
2022-11-06T21:39:36.833Z,11.65
2022-11-06T21:42:05.008Z,11.58
2022-11-06T21:44:32.282Z,11.38
2022-11-06T21:46:59.017Z,11.16
2022-11-06T21:49:25.759Z,11.09
2022-11-06T21:51:52.820Z,10.86
2022-11-06T21:54:37.927Z,10.66
2022-11-06T21:57:04.673Z,10.61
2022-11-06T21:59:31.316Z,10.46
2022-11-06T22:01:58.165Z,10.35
2022-11-06T22:04:25.063Z,10.48
2022-11-06T22:06:52.627Z,10.59
2022-11-06T22:09:24.923Z,10.61
2022-11-06T22:11:52.134Z,10.70
2022-11-06T22:14:18.749Z,10.76
2022-11-06T22:16:46.876Z,10.71
2022-11-06T22:19:15.015Z,10.73
2022-11-06T22:21:41.789Z,10.78
2022-11-06T22:24:10.543Z,10.75
2022-11-06T22:26:37.908Z,10.73
2022-11-06T22:29:08.552Z,10.66
2022-11-06T22:31:35.655Z,10.75
2022-11-06T22:34:02.960Z,10.56
2022-11-06T22:36:29.701Z,10.53
2022-11-06T22:38:57.712Z,10.42
2022-11-06T22:41:25.097Z,10.42
2022-11-06T22:43:53.218Z,10.15
2022-11-06T22:46:23.503Z,10.19
2022-11-06T22:48:52.122Z,10.16
2022-11-06T22:51:22.172Z,10.19
2022-11-06T22:53:50.468Z,10.14
2022-11-06T22:56:17.754Z,9.75
2022-11-06T22:58:44.949Z,9.39
2022-11-06T23:01:11.995Z,9.40
2022-11-06T23:03:39.723Z,9.16
2022-11-06T23:06:09.375Z,9.24
2022-11-06T23:08:40.628Z,9.20
2022-11-06T23:11:14.905Z,9.12
2022-11-06T23:13:41.788Z,9.17
2022-11-06T23:16:12.301Z,9.04
2022-11-06T23:18:39.648Z,9.04
2022-11-06T23:21:14.452Z,9.01
2022-11-06T23:23:42.523Z,9.07
2022-11-06T23:26:17.019Z,9.19
2022-11-06T23:28:45.279Z,9.20
2022-11-06T23:31:12.982Z,9.22
2022-11-06T23:33:40.319Z,9.21
2022-11-06T23:36:08.300Z,9.22
2022-11-06T23:38:35.310Z,9.18
2022-11-06T23:41:27.079Z,9.20
2022-11-06T23:43:54.448Z,9.12
2022-11-06T23:46:23.908Z,9.12
2022-11-06T23:48:50.675Z,9.16
2022-11-06T23:51:17.488Z,9.13
2022-11-06T23:53:44.928Z,9.00
2022-11-06T23:56:12.860Z,8.87
2022-11-06T23:58:40.650Z,8.86
